sensor_id;sensor_type;location;lat;lon;timestamp;P1;durP1;ratioP1;P2;durP2;ratioP2
15889;SDS011;8043;49.388;12.128;2023-08-07T00:02:21;0.30;;;0.30;;
15889;SDS011;8043;49.388;12.128;2023-08-07T00:07:23;0.60;;;0.50;;
15889;SDS011;8043;49.388;12.128;2023-08-07T00:12:26;0.33;;;0.33;;
15889;SDS011;8043;49.388;12.128;2023-08-07T00:17:28;0.35;;;0.35;;
15889;SDS011;8043;49.388;12.128;2023-08-07T00:22:30;0.40;;;0.40;;
15889;SDS011;8043;49.388;12.128;2023-08-07T00:27:32;0.50;;;0.33;;
15889;SDS011;8043;49.388;12.128;2023-08-07T00:32:35;0.27;;;0.27;;
15889;SDS011;8043;49.388;12.128;2023-08-07T00:37:37;0.40;;;0.40;;
15889;SDS011;8043;49.388;12.128;2023-08-07T00:42:39;0.73;;;0.63;;
15889;SDS011;8043;49.388;12.128;2023-08-07T00:47:41;8.70;;;0.50;;
15889;SDS011;8043;49.388;12.128;2023-08-07T00:52:44;0.30;;;0.30;;
15889;SDS011;8043;49.388;12.128;2023-08-07T00:57:46;0.30;;;0.30;;
15889;SDS011;8043;49.388;12.128;2023-08-07T01:02:48;0.27;;;0.27;;
15889;SDS011;8043;49.388;12.128;2023-08-07T01:07:52;0.10;;;0.10;;
15889;SDS011;8043;49.388;12.128;2023-08-07T01:12:58;0.20;;;0.20;;
15889;SDS011;8043;49.388;12.128;2023-08-07T01:18:01;0.30;;;0.30;;
15889;SDS011;8043;49.388;12.128;2023-08-07T01:23:05;0.20;;;0.20;;
15889;SDS011;8043;49.388;12.128;2023-08-07T01:28:25;0.40;;;0.40;;
15889;SDS011;8043;49.388;12.128;2023-08-07T01:38:33;0.10;;;0.10;;
15889;SDS011;8043;49.388;12.128;2023-08-07T01:43:36;0.20;;;0.20;;
15889;SDS011;8043;49.388;12.128;2023-08-07T01:48:38;0.20;;;0.20;;
15889;SDS011;8043;49.388;12.128;2023-08-07T01:53:40;0.20;;;0.20;;
15889;SDS011;8043;49.388;12.128;2023-08-07T01:58:43;0.30;;;0.30;;
15889;SDS011;8043;49.388;12.128;2023-08-07T02:03:45;3.67;;;0.20;;
15889;SDS011;8043;49.388;12.128;2023-08-07T02:08:47;0.10;;;0.10;;
15889;SDS011;8043;49.388;12.128;2023-08-07T02:18:51;0.10;;;0.10;;
15889;SDS011;8043;49.388;12.128;2023-08-07T02:23:53;0.20;;;0.20;;
15889;SDS011;8043;49.388;12.128;2023-08-07T02:28:55;0.20;;;0.20;;
15889;SDS011;8043;49.388;12.128;2023-08-07T02:33:58;0.17;;;0.17;;
15889;SDS011;8043;49.388;12.128;2023-08-07T02:39:00;0.10;;;0.10;;
15889;SDS011;8043;49.388;12.128;2023-08-07T02:44:03;0.30;;;0.13;;
15889;SDS011;8043;49.388;12.128;2023-08-07T02:49:05;1.72;;;0.62;;
15889;SDS011;8043;49.388;12.128;2023-08-07T02:54:07;0.20;;;0.20;;
15889;SDS011;8043;49.388;12.128;2023-08-07T02:59:09;2.80;;;0.37;;
15889;SDS011;8043;49.388;12.128;2023-08-07T03:04:11;0.10;;;0.10;;
15889;SDS011;8043;49.388;12.128;2023-08-07T03:09:14;0.47;;;0.30;;
15889;SDS011;8043;49.388;12.128;2023-08-07T03:14:16;0.10;;;0.10;;
15889;SDS011;8043;49.388;12.128;2023-08-07T03:19:18;0.10;;;0.10;;
15889;SDS011;8043;49.388;12.128;2023-08-07T03:24:22;0.10;;;0.10;;
15889;SDS011;8043;49.388;12.128;2023-08-07T03:29:24;0.10;;;0.10;;
15889;SDS011;8043;49.388;12.128;2023-08-07T03:34:26;0.20;;;0.20;;
15889;SDS011;8043;49.388;12.128;2023-08-07T03:44:30;0.17;;;0.17;;
15889;SDS011;8043;49.388;12.128;2023-08-07T03:49:33;0.75;;;0.20;;
15889;SDS011;8043;49.388;12.128;2023-08-07T03:54:35;0.20;;;0.20;;
15889;SDS011;8043;49.388;12.128;2023-08-07T04:04:39;0.10;;;0.10;;
15889;SDS011;8043;49.388;12.128;2023-08-07T04:09:41;0.63;;;0.30;;
15889;SDS011;8043;49.388;12.128;2023-08-07T04:14:43;0.47;;;0.40;;
15889;SDS011;8043;49.388;12.128;2023-08-07T04:19:46;0.87;;;0.43;;
15889;SDS011;8043;49.388;12.128;2023-08-07T04:24:48;0.17;;;0.17;;
15889;SDS011;8043;49.388;12.128;2023-08-07T04:29:50;1.37;;;0.50;;
15889;SDS011;8043;49.388;12.128;2023-08-07T04:34:52;0.27;;;0.27;;
15889;SDS011;8043;49.388;12.128;2023-08-07T04:39:55;0.13;;;0.13;;
15889;SDS011;8043;49.388;12.128;2023-08-07T04:44:57;0.30;;;0.30;;
15889;SDS011;8043;49.388;12.128;2023-08-07T04:49:59;0.20;;;0.20;;
15889;SDS011;8043;49.388;12.128;2023-08-07T04:55:01;0.80;;;0.37;;
15889;SDS011;8043;49.388;12.128;2023-08-07T05:00:04;0.25;;;0.25;;
15889;SDS011;8043;49.388;12.128;2023-08-07T05:05:08;0.42;;;0.42;;
15889;SDS011;8043;49.388;12.128;2023-08-07T05:15:12;2.85;;;0.40;;
15889;SDS011;8043;49.388;12.128;2023-08-07T05:20:14;0.30;;;0.30;;
15889;SDS011;8043;49.388;12.128;2023-08-07T05:25:16;0.37;;;0.37;;
15889;SDS011;8043;49.388;12.128;2023-08-07T05:30:19;0.28;;;0.28;;
15889;SDS011;8043;49.388;12.128;2023-08-07T05:35:21;0.30;;;0.30;;
15889;SDS011;8043;49.388;12.128;2023-08-07T05:40:23;0.57;;;0.55;;
15889;SDS011;8043;49.388;12.128;2023-08-07T05:50:27;1.22;;;0.30;;
15889;SDS011;8043;49.388;12.128;2023-08-07T05:55:29;0.30;;;0.30;;
15889;SDS011;8043;49.388;12.128;2023-08-07T06:00:31;0.30;;;0.30;;
15889;SDS011;8043;49.388;12.128;2023-08-07T06:10:35;3.40;;;0.50;;
15889;SDS011;8043;49.388;12.128;2023-08-07T06:15:38;1.30;;;0.55;;
15889;SDS011;8043;49.388;12.128;2023-08-07T06:20:41;1.12;;;0.50;;
15889;SDS011;8043;49.388;12.128;2023-08-07T06:25:43;0.60;;;0.60;;
15889;SDS011;8043;49.388;12.128;2023-08-07T06:30:45;0.60;;;0.60;;
15889;SDS011;8043;49.388;12.128;2023-08-07T06:35:47;0.63;;;0.50;;
15889;SDS011;8043;49.388;12.128;2023-08-07T06:40:50;0.37;;;0.37;;
15889;SDS011;8043;49.388;12.128;2023-08-07T06:45:53;0.70;;;0.70;;
15889;SDS011;8043;49.388;12.128;2023-08-07T06:50:56;0.85;;;0.60;;
15889;SDS011;8043;49.388;12.128;2023-08-07T06:55:58;3.50;;;1.60;;
15889;SDS011;8043;49.388;12.128;2023-08-07T07:01:00;1.53;;;0.73;;
15889;SDS011;8043;49.388;12.128;2023-08-07T07:11:04;0.95;;;0.90;;
15889;SDS011;8043;49.388;12.128;2023-08-07T07:16:06;0.50;;;0.50;;
15889;SDS011;8043;49.388;12.128;2023-08-07T07:26:10;0.62;;;0.62;;
15889;SDS011;8043;49.388;12.128;2023-08-07T07:31:12;2.10;;;0.77;;
15889;SDS011;8043;49.388;12.128;2023-08-07T07:36:17;1.10;;;0.93;;
15889;SDS011;8043;49.388;12.128;2023-08-07T07:46:21;0.47;;;0.47;;
15889;SDS011;8043;49.388;12.128;2023-08-07T07:51:24;0.82;;;0.80;;
15889;SDS011;8043;49.388;12.128;2023-08-07T08:01:28;1.02;;;0.93;;
15889;SDS011;8043;49.388;12.128;2023-08-07T08:06:30;2.10;;;1.00;;
15889;SDS011;8043;49.388;12.128;2023-08-07T08:11:32;0.63;;;0.50;;
15889;SDS011;8043;49.388;12.128;2023-08-07T08:16:34;1.17;;;0.80;;
15889;SDS011;8043;49.388;12.128;2023-08-07T08:26:38;1.25;;;1.15;;
15889;SDS011;8043;49.388;12.128;2023-08-07T08:31:40;4.23;;;0.80;;
15889;SDS011;8043;49.388;12.128;2023-08-07T08:41:47;1.15;;;0.47;;
15889;SDS011;8043;49.388;12.128;2023-08-07T08:46:51;1.25;;;0.80;;
15889;SDS011;8043;49.388;12.128;2023-08-07T08:51:55;0.50;;;0.50;;
15889;SDS011;8043;49.388;12.128;2023-08-07T08:56:59;0.47;;;0.33;;
15889;SDS011;8043;49.388;12.128;2023-08-07T09:02:01;0.50;;;0.50;;
15889;SDS011;8043;49.388;12.128;2023-08-07T09:12:06;0.62;;;0.50;;
15889;SDS011;8043;49.388;12.128;2023-08-07T09:17:13;0.62;;;0.50;;
15889;SDS011;8043;49.388;12.128;2023-08-07T09:22:16;0.40;;;0.40;;
15889;SDS011;8043;49.388;12.128;2023-08-07T09:27:19;2.52;;;0.60;;
15889;SDS011;8043;49.388;12.128;2023-08-07T09:32:22;0.50;;;0.50;;
15889;SDS011;8043;49.388;12.128;2023-08-07T09:37:25;0.40;;;0.40;;
15889;SDS011;8043;49.388;12.128;2023-08-07T09:42:30;2.25;;;0.62;;
15889;SDS011;8043;49.388;12.128;2023-08-07T09:47:33;0.47;;;0.40;;
15889;SDS011;8043;49.388;12.128;2023-08-07T09:52:36;2.22;;;0.57;;
15889;SDS011;8043;49.388;12.128;2023-08-07T09:57:40;0.90;;;0.90;;
15889;SDS011;8043;49.388;12.128;2023-08-07T10:02:45;6.30;;;0.80;;
15889;SDS011;8043;49.388;12.128;2023-08-07T10:07:49;1.27;;;0.88;;
15889;SDS011;8043;49.388;12.128;2023-08-07T10:12:52;1.85;;;0.78;;
15889;SDS011;8043;49.388;12.128;2023-08-07T10:17:54;1.75;;;0.90;;
15889;SDS011;8043;49.388;12.128;2023-08-07T10:22:58;0.68;;;0.65;;
15889;SDS011;8043;49.388;12.128;2023-08-07T10:28:09;2.55;;;0.80;;
15889;SDS011;8043;49.388;12.128;2023-08-07T10:33:13;1.50;;;0.93;;
15889;SDS011;8043;49.388;12.128;2023-08-07T10:38:22;3.47;;;0.90;;
15889;SDS011;8043;49.388;12.128;2023-08-07T10:43:24;3.20;;;0.78;;
15889;SDS011;8043;49.388;12.128;2023-08-07T10:48:28;0.50;;;0.50;;
15889;SDS011;8043;49.388;12.128;2023-08-07T10:53:31;0.50;;;0.50;;
15889;SDS011;8043;49.388;12.128;2023-08-07T10:58:35;6.22;;;0.80;;
15889;SDS011;8043;49.388;12.128;2023-08-07T11:03:40;0.47;;;0.45;;
15889;SDS011;8043;49.388;12.128;2023-08-07T11:08:43;0.78;;;0.37;;
15889;SDS011;8043;49.388;12.128;2023-08-07T11:13:45;1.13;;;0.80;;
15889;SDS011;8043;49.388;12.128;2023-08-07T11:18:48;2.33;;;0.80;;
15889;SDS011;8043;49.388;12.128;2023-08-07T11:23:50;1.17;;;1.02;;
15889;SDS011;8043;49.388;12.128;2023-08-07T11:28:53;0.85;;;0.53;;
15889;SDS011;8043;49.388;12.128;2023-08-07T11:33:56;0.85;;;0.85;;
15889;SDS011;8043;49.388;12.128;2023-08-07T11:38:59;1.17;;;1.07;;
15889;SDS011;8043;49.388;12.128;2023-08-07T11:44:03;0.50;;;0.50;;
15889;SDS011;8043;49.388;12.128;2023-08-07T11:49:06;1.72;;;1.00;;
15889;SDS011;8043;49.388;12.128;2023-08-07T11:54:13;2.02;;;1.35;;
15889;SDS011;8043;49.388;12.128;2023-08-07T11:59:18;1.60;;;1.50;;
15889;SDS011;8043;49.388;12.128;2023-08-07T12:04:20;1.03;;;0.80;;
15889;SDS011;8043;49.388;12.128;2023-08-07T12:09:22;1.12;;;1.02;;
15889;SDS011;8043;49.388;12.128;2023-08-07T12:14:29;3.63;;;2.03;;
15889;SDS011;8043;49.388;12.128;2023-08-07T12:19:38;0.95;;;0.90;;
15889;SDS011;8043;49.388;12.128;2023-08-07T12:24:40;5.03;;;1.10;;
15889;SDS011;8043;49.388;12.128;2023-08-07T12:29:43;1.30;;;1.20;;
15889;SDS011;8043;49.388;12.128;2023-08-07T12:34:45;3.53;;;1.13;;
15889;SDS011;8043;49.388;12.128;2023-08-07T12:39:49;2.08;;;1.35;;
15889;SDS011;8043;49.388;12.128;2023-08-07T12:44:51;1.73;;;1.20;;
15889;SDS011;8043;49.388;12.128;2023-08-07T12:49:53;2.10;;;1.20;;
15889;SDS011;8043;49.388;12.128;2023-08-07T12:54:56;2.17;;;1.07;;
15889;SDS011;8043;49.388;12.128;2023-08-07T12:59:58;2.40;;;1.23;;
15889;SDS011;8043;49.388;12.128;2023-08-07T13:10:04;4.00;;;1.30;;
15889;SDS011;8043;49.388;12.128;2023-08-07T13:15:08;2.60;;;1.00;;
15889;SDS011;8043;49.388;12.128;2023-08-07T13:20:13;4.65;;;1.12;;
15889;SDS011;8043;49.388;12.128;2023-08-07T13:25:15;2.62;;;1.30;;
15889;SDS011;8043;49.388;12.128;2023-08-07T13:30:18;2.00;;;1.00;;
15889;SDS011;8043;49.388;12.128;2023-08-07T13:35:20;4.90;;;1.80;;
15889;SDS011;8043;49.388;12.128;2023-08-07T13:40:22;1.40;;;0.93;;
15889;SDS011;8043;49.388;12.128;2023-08-07T13:45:24;1.95;;;1.02;;
15889;SDS011;8043;49.388;12.128;2023-08-07T13:50:26;1.83;;;1.00;;
15889;SDS011;8043;49.388;12.128;2023-08-07T13:55:29;1.40;;;1.00;;
15889;SDS011;8043;49.388;12.128;2023-08-07T14:00:31;1.07;;;0.97;;
15889;SDS011;8043;49.388;12.128;2023-08-07T14:05:35;2.50;;;1.20;;
15889;SDS011;8043;49.388;12.128;2023-08-07T14:10:38;0.95;;;0.75;;
15889;SDS011;8043;49.388;12.128;2023-08-07T14:15:41;0.85;;;0.80;;
15889;SDS011;8043;49.388;12.128;2023-08-07T14:20:43;1.92;;;1.20;;
15889;SDS011;8043;49.388;12.128;2023-08-07T14:25:46;1.47;;;0.60;;
15889;SDS011;8043;49.388;12.128;2023-08-07T14:30:49;1.27;;;0.70;;
15889;SDS011;8043;49.388;12.128;2023-08-07T14:35:52;0.80;;;0.65;;
15889;SDS011;8043;49.388;12.128;2023-08-07T14:40:54;2.72;;;0.60;;
15889;SDS011;8043;49.388;12.128;2023-08-07T14:45:59;0.50;;;0.50;;
15889;SDS011;8043;49.388;12.128;2023-08-07T14:51:02;1.07;;;0.47;;
15889;SDS011;8043;49.388;12.128;2023-08-07T14:56:04;4.22;;;0.85;;
15889;SDS011;8043;49.388;12.128;2023-08-07T15:01:08;0.60;;;0.60;;
15889;SDS011;8043;49.388;12.128;2023-08-07T15:06:10;1.07;;;0.60;;
15889;SDS011;8043;49.388;12.128;2023-08-07T15:11:12;0.77;;;0.50;;
15889;SDS011;8043;49.388;12.128;2023-08-07T15:16:15;1.27;;;0.60;;
15889;SDS011;8043;49.388;12.128;2023-08-07T15:21:17;0.70;;;0.70;;
15889;SDS011;8043;49.388;12.128;2023-08-07T15:26:19;0.50;;;0.50;;
15889;SDS011;8043;49.388;12.128;2023-08-07T15:31:21;3.87;;;1.37;;
15889;SDS011;8043;49.388;12.128;2023-08-07T15:36:24;3.37;;;0.87;;
15889;SDS011;8043;49.388;12.128;2023-08-07T15:41:26;1.30;;;0.93;;
15889;SDS011;8043;49.388;12.128;2023-08-07T15:46:28;2.53;;;1.17;;
15889;SDS011;8043;49.388;12.128;2023-08-07T15:51:30;0.80;;;0.80;;
15889;SDS011;8043;49.388;12.128;2023-08-07T15:56:32;0.95;;;0.95;;
15889;SDS011;8043;49.388;12.128;2023-08-07T16:01:35;1.00;;;0.80;;
15889;SDS011;8043;49.388;12.128;2023-08-07T16:06:37;3.40;;;1.40;;
15889;SDS011;8043;49.388;12.128;2023-08-07T16:11:39;1.57;;;1.12;;
15889;SDS011;8043;49.388;12.128;2023-08-07T16:16:41;6.33;;;1.30;;
15889;SDS011;8043;49.388;12.128;2023-08-07T16:21:44;2.17;;;1.20;;
15889;SDS011;8043;49.388;12.128;2023-08-07T16:26:46;4.67;;;1.37;;
15889;SDS011;8043;49.388;12.128;2023-08-07T16:31:48;9.33;;;1.73;;
15889;SDS011;8043;49.388;12.128;2023-08-07T16:36:51;3.60;;;1.42;;
15889;SDS011;8043;49.388;12.128;2023-08-07T16:46:55;3.42;;;1.17;;
15889;SDS011;8043;49.388;12.128;2023-08-07T16:51:57;3.63;;;1.63;;
15889;SDS011;8043;49.388;12.128;2023-08-07T16:56:59;2.30;;;1.47;;
15889;SDS011;8043;49.388;12.128;2023-08-07T17:02:03;2.47;;;1.45;;
15889;SDS011;8043;49.388;12.128;2023-08-07T17:07:07;7.03;;;1.20;;
15889;SDS011;8043;49.388;12.128;2023-08-07T17:17:12;3.85;;;1.40;;
15889;SDS011;8043;49.388;12.128;2023-08-07T17:22:14;6.07;;;1.73;;
15889;SDS011;8043;49.388;12.128;2023-08-07T17:27:16;4.13;;;1.47;;
15889;SDS011;8043;49.388;12.128;2023-08-07T17:32:19;5.20;;;1.47;;
15889;SDS011;8043;49.388;12.128;2023-08-07T17:37:23;0.93;;;0.93;;
15889;SDS011;8043;49.388;12.128;2023-08-07T17:42:25;2.65;;;1.10;;
15889;SDS011;8043;49.388;12.128;2023-08-07T17:47:28;1.92;;;1.20;;
15889;SDS011;8043;49.388;12.128;2023-08-07T17:52:36;3.50;;;1.27;;
15889;SDS011;8043;49.388;12.128;2023-08-07T17:57:34;0.98;;;0.90;;
15889;SDS011;8043;49.388;12.128;2023-08-07T18:02:36;3.93;;;1.20;;
15889;SDS011;8043;49.388;12.128;2023-08-07T18:07:40;1.10;;;1.00;;
15889;SDS011;8043;49.388;12.128;2023-08-07T18:12:44;2.00;;;1.20;;
15889;SDS011;8043;49.388;12.128;2023-08-07T18:17:46;4.75;;;1.47;;
15889;SDS011;8043;49.388;12.128;2023-08-07T18:22:49;5.97;;;2.33;;
15889;SDS011;8043;49.388;12.128;2023-08-07T18:27:51;3.45;;;1.30;;
15889;SDS011;8043;49.388;12.128;2023-08-07T18:32:54;6.75;;;1.62;;
15889;SDS011;8043;49.388;12.128;2023-08-07T18:37:56;2.10;;;1.37;;
15889;SDS011;8043;49.388;12.128;2023-08-07T18:42:58;3.62;;;1.67;;
15889;SDS011;8043;49.388;12.128;2023-08-07T18:53:02;1.75;;;1.05;;
15889;SDS011;8043;49.388;12.128;2023-08-07T18:58:10;3.03;;;1.60;;
15889;SDS011;8043;49.388;12.128;2023-08-07T19:03:13;4.47;;;1.32;;
15889;SDS011;8043;49.388;12.128;2023-08-07T19:08:15;2.87;;;1.50;;
15889;SDS011;8043;49.388;12.128;2023-08-07T19:13:18;2.58;;;1.60;;
15889;SDS011;8043;49.388;12.128;2023-08-07T19:18:20;3.27;;;1.93;;
15889;SDS011;8043;49.388;12.128;2023-08-07T19:23:23;7.75;;;1.98;;
15889;SDS011;8043;49.388;12.128;2023-08-07T19:28:25;3.02;;;1.60;;
15889;SDS011;8043;49.388;12.128;2023-08-07T19:33:28;2.75;;;1.70;;
15889;SDS011;8043;49.388;12.128;2023-08-07T19:38:30;2.52;;;1.82;;
15889;SDS011;8043;49.388;12.128;2023-08-07T19:43:32;6.30;;;2.43;;
15889;SDS011;8043;49.388;12.128;2023-08-07T19:48:34;2.73;;;1.33;;
15889;SDS011;8043;49.388;12.128;2023-08-07T19:53:36;4.17;;;1.60;;
15889;SDS011;8043;49.388;12.128;2023-08-07T19:58:39;2.60;;;2.03;;
15889;SDS011;8043;49.388;12.128;2023-08-07T20:03:41;4.92;;;2.22;;
15889;SDS011;8043;49.388;12.128;2023-08-07T20:08:50;5.08;;;1.95;;
15889;SDS011;8043;49.388;12.128;2023-08-07T20:13:49;3.47;;;1.98;;
15889;SDS011;8043;49.388;12.128;2023-08-07T20:18:51;1.67;;;1.52;;
15889;SDS011;8043;49.388;12.128;2023-08-07T20:23:53;1.97;;;1.57;;
15889;SDS011;8043;49.388;12.128;2023-08-07T20:28:56;3.52;;;1.70;;
15889;SDS011;8043;49.388;12.128;2023-08-07T20:39:00;6.80;;;1.65;;
15889;SDS011;8043;49.388;12.128;2023-08-07T20:44:04;2.77;;;2.08;;
15889;SDS011;8043;49.388;12.128;2023-08-07T20:49:06;4.03;;;1.63;;
15889;SDS011;8043;49.388;12.128;2023-08-07T20:54:09;5.92;;;1.70;;
15889;SDS011;8043;49.388;12.128;2023-08-07T20:59:11;3.13;;;1.70;;
15889;SDS011;8043;49.388;12.128;2023-08-07T21:04:14;6.67;;;2.10;;
15889;SDS011;8043;49.388;12.128;2023-08-07T21:09:16;7.47;;;2.20;;
15889;SDS011;8043;49.388;12.128;2023-08-07T21:14:18;4.27;;;2.23;;
15889;SDS011;8043;49.388;12.128;2023-08-07T21:24:22;5.35;;;2.30;;
15889;SDS011;8043;49.388;12.128;2023-08-07T21:34:26;2.95;;;2.02;;
15889;SDS011;8043;49.388;12.128;2023-08-07T21:39:28;1.98;;;1.62;;
15889;SDS011;8043;49.388;12.128;2023-08-07T21:49:32;5.78;;;2.45;;
15889;SDS011;8043;49.388;12.128;2023-08-07T21:54:34;2.58;;;2.00;;
15889;SDS011;8043;49.388;12.128;2023-08-07T21:59:37;3.30;;;2.17;;
15889;SDS011;8043;49.388;12.128;2023-08-07T22:04:39;3.13;;;1.90;;
15889;SDS011;8043;49.388;12.128;2023-08-07T22:09:41;5.17;;;1.73;;
15889;SDS011;8043;49.388;12.128;2023-08-07T22:14:43;3.12;;;1.82;;
15889;SDS011;8043;49.388;12.128;2023-08-07T22:19:46;1.63;;;1.50;;
15889;SDS011;8043;49.388;12.128;2023-08-07T22:24:48;3.03;;;1.87;;
15889;SDS011;8043;49.388;12.128;2023-08-07T22:29:50;4.37;;;2.03;;
15889;SDS011;8043;49.388;12.128;2023-08-07T22:34:52;3.12;;;2.10;;
15889;SDS011;8043;49.388;12.128;2023-08-07T22:44:56;4.55;;;1.85;;
15889;SDS011;8043;49.388;12.128;2023-08-07T22:49:58;2.93;;;1.63;;
15889;SDS011;8043;49.388;12.128;2023-08-07T22:55:00;3.63;;;1.77;;
15889;SDS011;8043;49.388;12.128;2023-08-07T23:00:03;1.60;;;1.35;;
15889;SDS011;8043;49.388;12.128;2023-08-07T23:05:07;5.30;;;1.70;;
15889;SDS011;8043;49.388;12.128;2023-08-07T23:10:10;2.70;;;1.60;;
15889;SDS011;8043;49.388;12.128;2023-08-07T23:15:13;2.58;;;1.45;;
15889;SDS011;8043;49.388;12.128;2023-08-07T23:20:15;3.23;;;1.53;;
15889;SDS011;8043;49.388;12.128;2023-08-07T23:25:18;3.65;;;1.70;;
15889;SDS011;8043;49.388;12.128;2023-08-07T23:30:20;5.07;;;1.60;;
15889;SDS011;8043;49.388;12.128;2023-08-07T23:35:22;2.27;;;1.57;;
15889;SDS011;8043;49.388;12.128;2023-08-07T23:40:24;1.63;;;1.50;;
15889;SDS011;8043;49.388;12.128;2023-08-07T23:45:27;2.97;;;1.90;;
15889;SDS011;8043;49.388;12.128;2023-08-07T23:50:29;13.90;;;2.00;;
15889;SDS011;8043;49.388;12.128;2023-08-07T23:55:31;5.47;;;2.33;;
